Airfield :
LOGIN :

Register | Disclaimer

   EN    FR    IT 

 










Legend :    VFR   Marginal VFR   IFR   Intensive IFR   Very Intensive IFR
Visi :
Ceiling :
>= 8 km
>= 3000ft
5 to 8 km
1000 to 3000 ft
1500m to 5 km
500 to 1000 ft
800 to 1500m
200 to 500 ft
< 800m
< 200 ft
Symbols :   Thunderstorms  Fog  Heavy snow  Heavy precipitations  Wind > 20 kt
SIGMETs :     Misc.  Thunderstorms  Icing  Turbulence  Mountain Waves  Volcanic Ashes






- Airport Elevation : 37 ft
- IATA code : FRO


ENFL - Florø

CURRENT METAR :
  • 081850Z 10015KT CAVOK 02/M08 Q1013

EXPIRED METARs :
  • 081820Z 09016KT CAVOK 02/M08 Q1012
  • 081750Z 10015KT CAVOK 02/M08 Q1013
  • 081720Z 10015KT CAVOK 02/M08 Q1013
  • 081650Z 10015KT CAVOK 02/M08 Q1013
  • 081620Z 09017KT CAVOK 02/M07 Q1013
  • 081550Z 09017KT CAVOK 02/M08 Q1013
  • 081520Z 10014KT CAVOK 02/M07 Q1013
  • 081450Z 10014KT CAVOK 02/M08 Q1013
  • 081420Z 11012KT CAVOK 02/M08 Q1013

TAF TAF ENFL
Valid from the 08 at 18:00 until the 09 at 03:00 UTC


081700Z 0818/0903 09015KT CAVOK



MET'MAP, your aeronautical weather chart ! - Copyright ORBIFLY December 2007 - Disclaimer

ORBIFLY MET'MAP TEAM :

Programming & Development : Alexandra Zaïnal
Original concept : Baudouin d'Aumeries
Technical & hardware support : Manuel Goepfert
Assistance : Marc-Olivier Méhu




SOURCES & CREDITS :

   NOAA